LOWS

Salzburg Airport

Salzburg, Austria
METAR LOWS 170850Z 17005KT 130V190 9999 FEW035 SCT060 BKN100 20/15 Q1016 NOSIG
Observed Flight Rules
Jul-17 @ 08:50 UTC (39 minutes ago) Visual Flight Rules
Wind Visibility Clouds
170° at 5 knots 10,000+ meters
  • Few at 3,500' AGL
  • Scattered at 6,000' AGL
  • Broken at 10,000' AGL
Temperatures Readings
Current 20°C / 68°F
Dewpoint 15°C / 59°F
Humidity 73%
Altimeter 30" Hg
Pressure 1016 hPa
Elevation 430
METAR LOWS 170850Z 17005KT 130V190 9999 FEW035 SCT060 BKN100 20/15 Q1016 NOSIG
Observed Flight Rules
Jul-17 @ 08:50 UTC
(39 minutes ago)
VFR
Wind Visibility
170° at 5 knots 10,000+ meters
Clouds
  • Few at 3,500' AGL
  • Scattered at 6,000' AGL
  • Broken at 10,000' AGL
Temperature Dewpoint
20°C / 68°F 15°C / 59°F
Humidity Altimeter Pressure
73% 30" Hg 1016 hPa